createdAt,value
2023-03-27T00:00:44.885Z,85.75
2023-03-27T00:01:44.881Z,87.30
2023-03-27T00:02:44.942Z,85.27
2023-03-27T00:03:45.052Z,87.35
2023-03-27T00:04:44.870Z,88.07
2023-03-27T00:05:44.839Z,87.87
2023-03-27T00:06:44.838Z,87.55
2023-03-27T00:07:44.816Z,88.34
2023-03-27T00:08:44.827Z,86.99
2023-03-27T00:09:44.828Z,86.89
2023-03-27T00:10:44.783Z,86.83
2023-03-27T00:11:44.792Z,87.45
2023-03-27T00:12:44.765Z,87.41
2023-03-27T00:13:50.138Z,88.07
2023-03-27T00:14:45.737Z,88.34
2023-03-27T00:15:44.733Z,88.34
2023-03-27T00:16:44.761Z,88.24
2023-03-27T00:17:44.731Z,86.99
2023-03-27T00:18:44.708Z,87.20
2023-03-27T00:19:44.691Z,86.58
2023-03-27T00:20:44.705Z,86.89
2023-03-27T00:21:44.662Z,87.30
2023-03-27T00:22:44.652Z,87.06
2023-03-27T00:23:44.660Z,87.47
2023-03-27T00:24:44.632Z,87.72
2023-03-27T00:25:44.625Z,87.30
2023-03-27T00:26:44.718Z,86.89
2023-03-27T00:27:44.642Z,88.34
2023-03-27T00:28:44.663Z,87.51
2023-03-27T00:29:44.627Z,87.04
2023-03-27T00:30:44.611Z,86.10
2023-03-27T00:31:44.561Z,86.83
2023-03-27T00:32:44.650Z,89.79
2023-03-27T00:33:44.535Z,89.73
2023-03-27T00:34:44.533Z,90.00
2023-03-27T00:35:44.548Z,88.96
2023-03-27T00:36:44.508Z,89.79
2023-03-27T00:37:44.500Z,86.93
2023-03-27T00:38:44.490Z,87.04
2023-03-27T00:39:44.485Z,87.20
2023-03-27T00:40:44.489Z,87.93
2023-03-27T00:41:44.451Z,88.03
2023-03-27T00:42:44.493Z,87.35
2023-03-27T00:43:44.430Z,88.48
2023-03-27T00:44:44.420Z,88.59
2023-03-27T00:45:44.413Z,88.48
2023-03-27T00:46:44.413Z,88.39
2023-03-27T00:47:44.437Z,86.93
2023-03-27T00:48:44.368Z,88.39
2023-03-27T00:49:44.374Z,87.90
2023-03-27T00:50:44.362Z,88.39
2023-03-27T00:51:44.385Z,87.59
2023-03-27T00:52:44.339Z,88.11
2023-03-27T00:53:44.329Z,88.01
2023-03-27T00:54:44.331Z,87.18
2023-03-27T00:55:44.341Z,85.21
2023-03-27T00:56:44.311Z,86.76
2023-03-27T00:57:44.280Z,87.32
2023-03-27T00:58:44.271Z,88.15
2023-03-27T00:59:44.275Z,87.84
2023-03-27T01:00:44.249Z,88.57
2023-03-27T01:01:44.296Z,87.12
2023-03-27T01:02:44.291Z,87.01
2023-03-27T01:03:44.351Z,87.74
2023-03-27T01:04:44.212Z,87.12
2023-03-27T01:05:44.199Z,87.01
2023-03-27T01:06:44.188Z,86.80
2023-03-27T01:08:00.020Z,86.60
2023-03-27T01:08:45.160Z,85.87
2023-03-27T01:09:44.159Z,87.12
2023-03-27T01:10:44.137Z,86.60
2023-03-27T01:11:44.131Z,85.56
2023-03-27T01:12:44.109Z,86.02
2023-03-27T01:13:44.121Z,86.08
2023-03-27T01:14:44.112Z,86.91
2023-03-27T01:15:44.097Z,86.70
2023-03-27T01:16:44.083Z,85.97
2023-03-27T01:17:44.091Z,86.60
2023-03-27T01:18:44.049Z,87.68
2023-03-27T01:19:44.055Z,88.20
2023-03-27T01:20:44.031Z,88.20
2023-03-27T01:21:44.036Z,87.68
2023-03-27T01:22:44.056Z,87.05
2023-03-27T01:23:59.734Z,87.37
2023-03-27T01:24:45.001Z,86.85
2023-03-27T01:25:43.983Z,88.44
2023-03-27T01:26:43.967Z,87.82
2023-03-27T01:27:43.974Z,88.75
2023-03-27T01:28:43.981Z,86.36
2023-03-27T01:29:43.958Z,86.99
2023-03-27T01:30:43.921Z,87.61
2023-03-27T01:31:43.946Z,86.57
2023-03-27T01:32:43.914Z,87.71
2023-03-27T01:33:43.897Z,87.40
2023-03-27T01:34:43.909Z,87.61
2023-03-27T01:35:43.960Z,87.82
2023-03-27T01:36:43.861Z,85.53
2023-03-27T01:37:43.857Z,86.26
2023-03-27T01:38:43.834Z,86.68
2023-03-27T01:39:43.843Z,86.16
2023-03-27T01:40:43.822Z,86.57
2023-03-27T01:41:43.813Z,87.71
2023-03-27T01:42:43.809Z,87.19
2023-03-27T01:43:43.805Z,86.16
2023-03-27T01:44:45.136Z,86.88
2023-03-27T01:45:43.763Z,86.47
2023-03-27T01:46:43.811Z,86.88
2023-03-27T01:47:43.792Z,85.64
2023-03-27T01:48:43.748Z,86.57
2023-03-27T01:49:43.723Z,86.57
2023-03-27T01:50:43.736Z,86.68
2023-03-27T01:51:43.709Z,85.74
2023-03-27T01:52:43.702Z,85.78
2023-03-27T01:53:43.682Z,84.64
2023-03-27T01:54:43.672Z,85.22
2023-03-27T01:55:43.677Z,84.81
2023-03-27T01:56:43.712Z,85.02
2023-03-27T01:57:49.289Z,86.16
2023-03-27T01:58:44.644Z,85.64
2023-03-27T01:59:43.623Z,86.68
2023-03-27T02:00:51.369Z,86.68
2023-03-27T02:01:44.696Z,86.57
2023-03-27T02:02:43.637Z,86.36
2023-03-27T02:03:43.579Z,86.78
2023-03-27T02:04:43.626Z,87.30
2023-03-27T02:05:43.579Z,86.19
2023-03-27T02:06:43.556Z,85.78
2023-03-27T02:07:43.534Z,85.57
2023-03-27T02:08:43.539Z,84.64
2023-03-27T02:09:43.517Z,86.26
2023-03-27T02:10:43.534Z,86.30
2023-03-27T02:11:43.488Z,84.70
2023-03-27T02:12:43.492Z,85.47
2023-03-27T02:13:43.475Z,85.16
2023-03-27T02:14:43.494Z,86.26
2023-03-27T02:15:43.505Z,85.88
2023-03-27T02:16:43.462Z,86.41
2023-03-27T02:17:43.487Z,85.99
2023-03-27T02:18:43.522Z,85.99
2023-03-27T02:19:43.430Z,84.74
2023-03-27T02:20:43.419Z,85.88
2023-03-27T02:21:43.387Z,85.99
2023-03-27T02:22:43.393Z,83.70
2023-03-27T02:23:43.377Z,83.60
2023-03-27T02:24:43.474Z,85.93
2023-03-27T02:25:43.377Z,85.16
2023-03-27T02:26:43.357Z,85.26
2023-03-27T02:27:43.328Z,85.47
2023-03-27T02:28:43.323Z,85.16
2023-03-27T02:29:43.306Z,84.99
2023-03-27T02:30:43.328Z,85.51
2023-03-27T02:31:43.344Z,86.55
2023-03-27T02:32:43.469Z,86.30
2023-03-27T02:33:43.270Z,86.30
2023-03-27T02:34:43.268Z,84.84
2023-03-27T02:35:43.302Z,86.30
2023-03-27T02:36:43.250Z,85.99
2023-03-27T02:37:43.248Z,84.95
2023-03-27T02:38:43.220Z,85.99
2023-03-27T02:39:43.211Z,85.99
2023-03-27T02:40:43.221Z,84.84
2023-03-27T02:41:43.223Z,86.09
2023-03-27T02:42:43.206Z,85.47
2023-03-27T02:43:43.193Z,84.74
2023-03-27T02:44:46.249Z,84.43
2023-03-27T02:45:43.249Z,86.19
2023-03-27T02:46:43.148Z,82.46
2023-03-27T02:47:43.174Z,82.18
2023-03-27T02:48:43.122Z,82.81
2023-03-27T02:49:43.121Z,84.58
2023-03-27T02:50:43.131Z,83.84
2023-03-27T02:51:43.082Z,84.43
2023-03-27T02:52:43.075Z,86.24
2023-03-27T02:53:43.095Z,84.95
2023-03-27T02:54:43.048Z,83.08
2023-03-27T02:55:43.038Z,84.33
2023-03-27T02:56:43.095Z,82.91
2023-03-27T02:57:52.049Z,83.43
2023-03-27T02:58:44.042Z,82.67
2023-03-27T02:59:43.000Z,83.64
2023-03-27T03:00:42.987Z,82.98
2023-03-27T03:01:43.055Z,84.37
2023-03-27T03:02:43.023Z,85.51
2023-03-27T03:03:42.977Z,85.51
2023-03-27T03:04:42.944Z,86.13
2023-03-27T03:05:42.934Z,85.93
2023-03-27T03:06:42.934Z,84.89
2023-03-27T03:07:42.925Z,85.10
2023-03-27T03:08:42.910Z,83.95
2023-03-27T03:09:42.898Z,83.64
2023-03-27T03:10:42.901Z,85.47
2023-03-27T03:11:42.899Z,85.20
2023-03-27T03:12:42.869Z,83.84
2023-03-27T03:13:42.856Z,84.01
2023-03-27T03:14:42.847Z,84.95
2023-03-27T03:15:42.836Z,81.98
2023-03-27T03:16:42.890Z,83.53
2023-03-27T03:17:42.845Z,82.18
2023-03-27T03:18:42.801Z,83.22
2023-03-27T03:19:42.795Z,85.30
2023-03-27T03:20:42.806Z,86.24
2023-03-27T03:21:42.796Z,86.24
2023-03-27T03:22:42.759Z,85.51
2023-03-27T03:23:42.744Z,84.47
2023-03-27T03:24:43.800Z,85.41
2023-03-27T03:25:42.721Z,84.68
2023-03-27T03:26:42.724Z,83.16
2023-03-27T03:27:42.700Z,82.64
2023-03-27T03:28:42.690Z,82.74
2023-03-27T03:29:43.678Z,82.22
2023-03-27T03:30:42.689Z,82.12
2023-03-27T03:31:42.740Z,84.37
2023-03-27T03:32:42.673Z,83.37
2023-03-27T03:33:42.635Z,83.68
2023-03-27T03:34:43.806Z,84.61
2023-03-27T03:35:43.866Z,83.99
2023-03-27T03:36:43.814Z,84.86
2023-03-27T03:37:43.808Z,84.96
2023-03-27T03:38:43.833Z,84.55
2023-03-27T03:39:43.798Z,83.58
2023-03-27T03:40:43.730Z,81.81
2023-03-27T03:41:43.787Z,82.15
2023-03-27T03:42:43.711Z,82.92
2023-03-27T03:43:43.753Z,81.98
2023-03-27T03:44:43.706Z,82.40
2023-03-27T03:45:43.723Z,82.40
2023-03-27T03:46:43.736Z,82.82
2023-03-27T03:47:43.748Z,82.92
2023-03-27T03:48:43.704Z,83.03
2023-03-27T03:49:43.689Z,83.44
2023-03-27T03:50:43.704Z,84.06
2023-03-27T03:51:43.658Z,83.17
2023-03-27T03:52:43.648Z,83.17
2023-03-27T03:53:43.678Z,82.13
2023-03-27T03:54:44.971Z,81.96
2023-03-27T03:55:43.640Z,83.20
2023-03-27T03:56:43.653Z,83.69
2023-03-27T03:57:43.557Z,83.52
2023-03-27T03:58:43.583Z,85.39
2023-03-27T03:59:43.556Z,85.50
2023-03-27T04:00:43.585Z,84.87
2023-03-27T04:01:43.593Z,85.39
2023-03-27T04:02:43.659Z,85.50
2023-03-27T04:03:43.615Z,85.74
2023-03-27T04:04:45.421Z,85.64
2023-03-27T04:05:43.519Z,86.16
2023-03-27T04:06:43.527Z,86.47
2023-03-27T04:07:43.494Z,86.37
2023-03-27T04:08:43.530Z,86.99
2023-03-27T04:09:43.472Z,87.35
2023-03-27T04:10:43.448Z,87.20
2023-03-27T04:11:43.501Z,86.93
2023-03-27T04:12:43.463Z,87.24
2023-03-27T04:13:43.404Z,87.14
2023-03-27T04:14:43.408Z,87.35
2023-03-27T04:15:43.491Z,86.93
2023-03-27T04:16:43.440Z,87.39
2023-03-27T04:17:43.478Z,87.39
2023-03-27T04:18:43.507Z,87.07
2023-03-27T04:19:43.446Z,86.03
2023-03-27T04:20:43.358Z,87.07
2023-03-27T04:21:43.392Z,86.97
2023-03-27T04:22:43.368Z,86.13
2023-03-27T04:23:43.370Z,86.38
2023-03-27T04:24:43.328Z,86.35
2023-03-27T04:25:43.382Z,86.59
2023-03-27T04:26:43.346Z,86.18
2023-03-27T04:27:43.302Z,85.55
2023-03-27T04:28:43.282Z,84.92
2023-03-27T04:29:43.340Z,85.51
2023-03-27T04:30:43.313Z,85.34
2023-03-27T04:31:43.303Z,84.05
2023-03-27T04:32:44.289Z,84.72
2023-03-27T04:33:43.233Z,85.44
2023-03-27T04:34:43.263Z,83.11
2023-03-27T04:35:43.228Z,83.32
2023-03-27T04:36:43.186Z,84.05
2023-03-27T04:37:43.229Z,84.05
2023-03-27T04:38:43.196Z,83.63
2023-03-27T04:39:43.222Z,83.01
2023-03-27T04:40:43.188Z,84.47
2023-03-27T04:41:43.150Z,84.78
2023-03-27T04:42:43.153Z,82.70
2023-03-27T04:43:43.161Z,83.11
2023-03-27T04:44:43.123Z,83.36
2023-03-27T04:45:43.116Z,83.88
2023-03-27T04:46:43.195Z,84.40
2023-03-27T04:47:43.128Z,86.28
2023-03-27T04:48:43.099Z,86.49
2023-03-27T04:49:43.082Z,86.18
2023-03-27T04:50:43.100Z,85.97
2023-03-27T04:51:43.099Z,85.80
2023-03-27T04:52:43.104Z,84.96
2023-03-27T04:53:43.102Z,85.34
2023-03-27T04:54:43.053Z,86.43
2023-03-27T04:55:43.063Z,86.74
2023-03-27T04:56:43.042Z,86.63
2023-03-27T04:57:43.020Z,86.53
2023-03-27T04:58:43.042Z,85.90
2023-03-27T04:59:43.039Z,87.05
2023-03-27T05:00:43.165Z,86.43
2023-03-27T05:01:43.051Z,86.74
2023-03-27T05:02:43.070Z,86.00
2023-03-27T05:03:43.031Z,86.63
2023-03-27T05:04:43.016Z,86.00
2023-03-27T05:05:42.963Z,86.84
2023-03-27T05:06:42.943Z,86.53
2023-03-27T05:07:42.912Z,87.26
2023-03-27T05:08:42.939Z,87.47
2023-03-27T05:09:42.893Z,87.26
2023-03-27T05:10:42.869Z,87.57
2023-03-27T05:11:42.886Z,87.51
2023-03-27T05:12:42.910Z,87.47
2023-03-27T05:13:42.877Z,87.61
2023-03-27T05:14:42.857Z,87.15
2023-03-27T05:15:42.826Z,86.53
2023-03-27T05:16:42.866Z,86.67
2023-03-27T05:17:42.862Z,86.00
2023-03-27T05:18:42.859Z,87.47
2023-03-27T05:19:42.813Z,87.47
2023-03-27T05:20:42.789Z,86.25
2023-03-27T05:21:42.757Z,86.46
2023-03-27T05:22:42.785Z,86.05
2023-03-27T05:23:42.791Z,85.52
2023-03-27T05:24:42.738Z,85.52
2023-03-27T05:25:59.311Z,86.15
2023-03-27T05:26:43.752Z,85.94
2023-03-27T05:27:42.705Z,86.05
2023-03-27T05:28:43.623Z,86.05
2023-03-27T05:29:47.010Z,87.19
2023-03-27T05:30:42.740Z,87.61
2023-03-27T05:31:42.649Z,87.61
2023-03-27T05:32:42.742Z,87.61
2023-03-27T05:33:42.681Z,86.88
2023-03-27T05:34:43.642Z,87.19
2023-03-27T05:35:42.872Z,86.67
2023-03-27T05:36:42.598Z,87.30
2023-03-27T05:37:42.618Z,87.61
2023-03-27T05:38:42.604Z,87.19
2023-03-27T05:39:42.576Z,87.30
2023-03-27T05:40:42.594Z,87.19
2023-03-27T05:41:42.568Z,87.09
2023-03-27T05:42:42.559Z,87.26
2023-03-27T05:43:42.569Z,87.68
2023-03-27T05:44:42.592Z,87.61
2023-03-27T05:45:42.552Z,87.15
2023-03-27T05:46:42.762Z,87.15
2023-03-27T05:47:42.704Z,87.47
2023-03-27T05:48:42.612Z,86.84
2023-03-27T05:49:42.600Z,86.74
2023-03-27T05:50:42.560Z,86.74
2023-03-27T05:51:46.761Z,86.18
2023-03-27T05:52:42.591Z,85.51
2023-03-27T05:53:42.529Z,84.70
2023-03-27T05:54:42.463Z,84.04
2023-03-27T05:55:42.515Z,81.98
2023-03-27T05:56:42.494Z,78.58
2023-03-27T05:57:42.446Z,78.13
2023-03-27T05:58:42.477Z,77.54
2023-03-27T05:59:42.485Z,76.99
2023-03-27T06:00:42.385Z,76.81
2023-03-27T06:01:42.431Z,75.84
2023-03-27T06:02:42.486Z,74.46
2023-03-27T06:03:42.615Z,73.19
2023-03-27T06:04:42.430Z,72.85
2023-03-27T06:05:42.434Z,73.22
2023-03-27T06:06:42.402Z,71.78
2023-03-27T06:07:43.521Z,70.92
2023-03-27T06:08:50.711Z,70.06
2023-03-27T06:09:43.370Z,69.12
2023-03-27T06:10:42.366Z,70.12
2023-03-27T06:43:30.229Z,65.70
2023-03-27T06:44:16.113Z,66.94
2023-03-27T06:45:15.173Z,62.77
2023-03-27T07:03:37.068Z,69.10
2023-03-27T07:04:38.563Z,69.41
2023-03-27T07:05:37.002Z,69.03
2023-03-27T07:06:47.309Z,69.54
2023-03-27T07:07:38.182Z,68.82
2023-03-27T07:08:36.950Z,69.75
2023-03-27T07:09:39.481Z,70.20
2023-03-27T07:10:36.921Z,70.75
2023-03-27T07:11:36.876Z,70.37
2023-03-27T07:12:36.870Z,72.26
2023-03-27T07:13:36.861Z,70.64
2023-03-27T07:14:36.861Z,72.94
2023-03-27T07:15:36.841Z,74.36
2023-03-27T07:16:36.880Z,75.02
2023-03-27T07:17:47.911Z,74.71
2023-03-27T07:18:37.847Z,74.40
2023-03-27T07:19:36.888Z,72.22
2023-03-27T07:20:36.785Z,72.02
2023-03-27T07:21:36.775Z,74.29
2023-03-27T07:22:36.796Z,75.63
2023-03-27T07:23:36.768Z,75.53
2023-03-27T07:24:36.756Z,75.22
2023-03-27T07:25:36.723Z,75.57
2023-03-27T07:26:36.719Z,75.12
2023-03-27T07:27:36.699Z,74.43
2023-03-27T07:28:36.743Z,74.74
2023-03-27T07:29:36.708Z,75.32
2023-03-27T07:30:36.683Z,75.74
2023-03-27T07:31:51.656Z,72.85
2023-03-27T07:36:34.245Z,76.70
2023-03-27T07:37:34.599Z,73.29
2023-03-27T07:38:34.209Z,71.92
2023-03-27T07:41:13.985Z,73.98
2023-03-27T07:42:29.719Z,75.01
2023-03-27T07:47:13.914Z,74.77
2023-03-27T07:48:15.806Z,73.95
2023-03-27T07:49:15.667Z,74.12
2023-03-27T07:50:14.032Z,74.53
2023-03-27T07:51:14.454Z,74.95
2023-03-27T07:52:16.303Z,74.08
2023-03-27T07:53:34.042Z,72.13
2023-03-27T07:54:14.860Z,70.68
2023-03-27T07:55:13.888Z,70.86
2023-03-27T07:56:13.898Z,73.36
2023-03-27T07:57:13.899Z,71.81
2023-03-27T07:58:13.873Z,71.61
2023-03-27T07:59:13.809Z,70.17
2023-03-27T08:00:13.805Z,72.85
2023-03-27T08:01:13.787Z,73.26
2023-03-27T08:02:13.770Z,69.34
2023-03-27T08:03:13.949Z,71.09
2023-03-27T08:04:13.868Z,70.65
2023-03-27T08:05:13.893Z,69.31
2023-03-27T08:06:13.723Z,69.17
2023-03-27T08:07:13.759Z,69.17
2023-03-27T08:08:13.705Z,72.64
2023-03-27T08:09:13.705Z,73.40
2023-03-27T08:10:13.707Z,70.41
2023-03-27T08:11:27.472Z,69.27
2023-03-27T08:12:14.667Z,70.31
2023-03-27T08:13:13.660Z,71.23
2023-03-27T08:14:13.692Z,68.76
2023-03-27T08:15:13.667Z,69.69
2023-03-27T08:16:13.628Z,69.51
2023-03-27T08:17:16.700Z,68.69
2023-03-27T08:18:13.634Z,67.35
2023-03-27T08:19:13.593Z,70.03
2023-03-27T08:20:13.585Z,68.96
2023-03-27T08:21:13.565Z,69.17
2023-03-27T08:22:13.544Z,69.86
2023-03-27T08:23:13.540Z,70.34
2023-03-27T08:24:13.525Z,70.04
2023-03-27T08:25:13.524Z,68.52
2023-03-27T08:26:13.509Z,67.08
2023-03-27T08:27:13.503Z,67.24
2023-03-27T08:28:13.483Z,69.31
2023-03-27T08:29:13.476Z,71.89
2023-03-27T08:30:14.560Z,71.06
2023-03-27T08:31:13.475Z,69.54
2023-03-27T08:32:13.434Z,68.93
2023-03-27T08:33:13.429Z,70.57
2023-03-27T08:34:14.385Z,71.02
2023-03-27T08:35:13.425Z,69.30
2023-03-27T08:36:13.453Z,70.57
2023-03-27T08:37:13.381Z,72.95
2023-03-27T08:38:25.814Z,71.09
2023-03-27T08:39:14.473Z,70.19
2023-03-27T08:40:13.382Z,72.95
2023-03-27T08:41:13.344Z,70.88
2023-03-27T08:42:13.345Z,72.95
2023-03-27T08:43:13.318Z,71.92
2023-03-27T08:44:13.310Z,72.09
2023-03-27T08:45:13.360Z,70.95
2023-03-27T08:46:13.379Z,72.30
2023-03-27T08:47:13.302Z,73.47
2023-03-27T08:48:13.286Z,72.02
2023-03-27T08:49:13.284Z,72.61
2023-03-27T08:50:13.275Z,74.02
2023-03-27T08:51:13.236Z,70.00
2023-03-27T08:52:13.254Z,70.79
2023-03-27T08:53:13.228Z,71.58
2023-03-27T08:54:13.199Z,69.38
2023-03-27T08:55:13.289Z,68.53
2023-03-27T08:56:13.248Z,65.89
2023-03-27T08:57:13.252Z,68.74
2023-03-27T08:58:13.184Z,68.40
2023-03-27T08:59:14.144Z,69.90
2023-03-27T09:00:13.174Z,67.89
2023-03-27T09:01:13.126Z,68.85
2023-03-27T09:02:13.221Z,66.16
2023-03-27T09:03:13.170Z,66.22
2023-03-27T09:04:13.100Z,64.48
2023-03-27T09:05:13.122Z,64.56
2023-03-27T09:06:13.091Z,64.42
2023-03-27T09:07:13.106Z,63.98
2023-03-27T09:08:13.053Z,62.52
2023-03-27T09:09:13.046Z,59.96
2023-03-27T09:10:13.023Z,62.85
2023-03-27T09:11:13.037Z,59.45
2023-03-27T09:12:13.014Z,57.33
2023-03-27T09:13:12.987Z,57.74
2023-03-27T09:14:12.971Z,60.27
2023-03-27T09:15:12.974Z,62.24
2023-03-27T09:16:12.984Z,60.06
2023-03-27T09:17:12.956Z,62.39
2023-03-27T09:18:12.945Z,62.61
2023-03-27T09:19:12.933Z,59.88
2023-03-27T09:20:12.917Z,56.79
2023-03-27T09:21:12.914Z,57.60
2023-03-27T09:22:12.885Z,60.44
2023-03-27T09:23:12.884Z,57.29
2023-03-27T09:24:12.879Z,56.74
2023-03-27T09:25:12.864Z,58.09
2023-03-27T09:26:12.865Z,57.51
2023-03-27T09:27:12.846Z,55.51
2023-03-27T09:28:12.829Z,57.87
2023-03-27T09:29:12.814Z,60.53
2023-03-27T09:30:13.803Z,60.35
2023-03-27T09:31:12.949Z,61.45
2023-03-27T09:32:12.846Z,56.84
2023-03-27T09:33:13.993Z,59.12
2023-03-27T09:34:13.942Z,56.77
2023-03-27T09:35:13.912Z,57.79
2023-03-27T09:36:13.914Z,59.71
2023-03-27T09:37:13.905Z,59.74
2023-03-27T09:38:13.900Z,56.26
2023-03-27T09:39:13.936Z,56.79
2023-03-27T09:40:13.912Z,55.69
2023-03-27T09:41:13.896Z,61.51
2023-03-27T09:42:13.926Z,59.50
2023-03-27T09:43:13.851Z,57.12
2023-03-27T09:44:13.856Z,53.08
2023-03-27T09:45:13.842Z,56.53
2023-03-27T09:46:13.905Z,56.12
2023-03-27T09:47:13.825Z,56.12
2023-03-27T09:48:13.820Z,57.56
2023-03-27T09:49:13.796Z,52.55
2023-03-27T09:50:13.794Z,53.85
2023-03-27T09:51:13.787Z,54.05
2023-03-27T09:52:13.815Z,54.36
2023-03-27T09:53:13.749Z,56.40
2023-03-27T09:54:13.763Z,51.50
2023-03-27T09:55:13.801Z,51.65
2023-03-27T09:56:13.948Z,51.84
2023-03-27T09:57:13.753Z,51.81
2023-03-27T09:58:13.692Z,50.51
2023-03-27T09:59:13.718Z,54.23
2023-03-27T10:00:13.682Z,53.11
2023-03-27T10:01:13.770Z,57.78
2023-03-27T10:02:13.643Z,54.26
2023-03-27T10:03:13.738Z,54.49
2023-03-27T10:04:13.703Z,56.32
2023-03-27T10:05:13.693Z,52.34
2023-03-27T10:06:13.634Z,56.50
2023-03-27T10:07:13.622Z,55.38
2023-03-27T10:08:13.590Z,55.63
2023-03-27T10:09:13.616Z,56.10
2023-03-27T10:10:13.617Z,53.83
2023-03-27T10:11:13.644Z,51.35
2023-03-27T10:12:13.560Z,51.56
2023-03-27T10:13:13.538Z,52.62
2023-03-27T10:14:13.490Z,53.16
2023-03-27T10:15:13.492Z,50.63
2023-03-27T10:16:13.524Z,49.55
2023-03-27T10:17:13.468Z,54.18
2023-03-27T10:18:13.506Z,51.91
2023-03-27T10:19:13.436Z,53.92
2023-03-27T10:20:13.436Z,51.02
2023-03-27T10:21:13.435Z,49.37
2023-03-27T10:22:14.482Z,49.65
2023-03-27T10:23:13.438Z,49.16
2023-03-27T10:24:13.387Z,52.50
2023-03-27T10:25:13.380Z,48.48
2023-03-27T10:26:13.377Z,50.21
2023-03-27T10:27:13.375Z,47.46
2023-03-27T10:28:13.363Z,52.15
2023-03-27T10:29:13.333Z,46.81
2023-03-27T10:30:13.457Z,50.37
2023-03-27T10:31:13.338Z,49.68
2023-03-27T10:32:13.360Z,49.67
2023-03-27T10:33:13.370Z,48.72
2023-03-27T10:34:13.283Z,50.09
2023-03-27T10:35:13.272Z,51.90
2023-03-27T10:36:13.266Z,53.67
2023-03-27T10:37:13.266Z,52.39
2023-03-27T10:38:13.238Z,52.82
2023-03-27T10:39:13.227Z,55.56
2023-03-27T10:40:14.287Z,50.82
2023-03-27T10:41:13.214Z,52.51
2023-03-27T10:42:13.216Z,52.87
2023-03-27T10:43:13.192Z,51.24
2023-03-27T10:44:13.196Z,52.16
2023-03-27T10:45:13.194Z,51.78
2023-03-27T10:46:13.245Z,52.01
2023-03-27T10:47:13.197Z,49.38
2023-03-27T10:48:13.160Z,48.22
2023-03-27T10:49:14.127Z,48.32
2023-03-27T10:50:13.300Z,45.59
2023-03-27T10:51:13.149Z,48.75
2023-03-27T10:52:13.174Z,50.56
2023-03-27T10:53:13.164Z,50.46
2023-03-27T10:54:13.168Z,46.20
2023-03-27T10:55:14.104Z,49.16
2023-03-27T10:56:13.116Z,51.56
2023-03-27T10:57:13.137Z,49.11
2023-03-27T10:58:13.095Z,49.11
2023-03-27T10:59:13.071Z,50.62
2023-03-27T11:00:13.064Z,47.97
2023-03-27T11:01:13.081Z,49.22
2023-03-27T11:02:13.045Z,50.95
2023-03-27T11:03:13.066Z,45.89
2023-03-27T11:04:13.032Z,45.87
2023-03-27T11:05:13.035Z,48.19
2023-03-27T11:06:12.993Z,50.54
2023-03-27T11:07:14.348Z,47.38
2023-03-27T11:08:12.983Z,50.63
2023-03-27T11:09:13.028Z,48.08
2023-03-27T11:10:13.046Z,49.10
2023-03-27T11:11:13.010Z,48.06
2023-03-27T11:12:12.969Z,49.05
2023-03-27T11:13:12.985Z,48.02
2023-03-27T11:14:13.062Z,49.65
2023-03-27T11:15:12.925Z,46.95
2023-03-27T11:16:12.954Z,44.57
2023-03-27T11:17:12.924Z,43.55
2023-03-27T11:18:12.978Z,48.13
2023-03-27T11:19:12.890Z,46.95
2023-03-27T11:20:12.955Z,48.03
2023-03-27T11:21:12.982Z,47.31
2023-03-27T11:22:12.909Z,52.49
2023-03-27T11:23:12.859Z,55.15
2023-03-27T11:24:12.848Z,50.68
2023-03-27T11:25:12.848Z,50.56
2023-03-27T11:26:12.857Z,51.17
2023-03-27T11:27:14.452Z,51.96
2023-03-27T11:28:13.808Z,48.65
2023-03-27T11:29:12.820Z,46.48
2023-03-27T11:30:12.858Z,45.24
2023-03-27T11:31:13.231Z,47.46
2023-03-27T11:32:12.794Z,47.97
2023-03-27T11:33:12.774Z,47.60
2023-03-27T11:34:12.742Z,44.93
2023-03-27T11:35:12.721Z,43.79
2023-03-27T11:36:12.859Z,45.37
2023-03-27T11:37:12.770Z,42.23
2023-03-27T11:38:12.757Z,43.14
2023-03-27T11:39:12.716Z,44.08
2023-03-27T11:40:12.721Z,42.63
2023-03-27T11:41:14.681Z,44.92
2023-03-27T11:42:13.663Z,48.55
2023-03-27T11:43:12.752Z,48.41
2023-03-27T11:44:12.663Z,51.75
2023-03-27T11:45:12.677Z,53.92
2023-03-27T11:46:12.657Z,55.82
2023-03-27T11:47:12.667Z,55.94
2023-03-27T11:48:12.713Z,57.00
2023-03-27T11:49:12.633Z,60.49
2023-03-27T11:50:12.617Z,59.61
2023-03-27T11:51:12.598Z,59.38
2023-03-27T11:52:12.559Z,56.56
2023-03-27T11:53:12.583Z,55.58
2023-03-27T11:54:12.554Z,56.27
2023-03-27T11:55:12.547Z,55.10
2023-03-27T11:56:12.547Z,55.66
2023-03-27T11:57:12.585Z,53.72
2023-03-27T11:58:12.555Z,53.45
2023-03-27T11:59:12.516Z,49.64
2023-03-27T12:00:12.514Z,49.72
2023-03-27T12:01:12.490Z,49.65
2023-03-27T12:02:12.565Z,46.61
2023-03-27T12:03:12.700Z,44.36
2023-03-27T12:04:12.489Z,47.67
2023-03-27T12:05:12.457Z,50.04
2023-03-27T12:06:12.422Z,51.85
2023-03-27T12:07:12.647Z,51.34
2023-03-27T12:08:12.418Z,49.04
2023-03-27T12:09:12.384Z,46.26
2023-03-27T12:10:12.425Z,43.93
2023-03-27T12:11:12.427Z,47.80
2023-03-27T12:12:12.396Z,44.74
2023-03-27T12:13:12.387Z,47.96
2023-03-27T12:14:18.044Z,45.31
2023-03-27T12:15:14.340Z,49.35
2023-03-27T12:16:12.466Z,44.60
2023-03-27T12:17:12.290Z,43.37
2023-03-27T12:18:12.323Z,42.92
2023-03-27T12:20:13.310Z,45.09
2023-03-27T12:21:12.240Z,47.37
2023-03-27T12:22:22.780Z,47.80
2023-03-27T12:23:14.324Z,46.25
2023-03-27T12:24:12.271Z,44.53
2023-03-27T12:25:12.226Z,48.05
2023-03-27T12:26:12.232Z,50.59
2023-03-27T12:27:12.226Z,52.17
2023-03-27T12:28:22.061Z,51.57
2023-03-27T12:29:23.033Z,53.62
2023-03-27T12:30:13.205Z,54.67
2023-03-27T12:31:12.168Z,57.79
2023-03-27T12:32:12.270Z,57.18
2023-03-27T12:33:12.149Z,57.79
2023-03-27T12:34:12.123Z,57.25
2023-03-27T12:35:12.080Z,59.71
2023-03-27T12:36:12.142Z,59.53
2023-03-27T12:37:12.073Z,57.76
2023-03-27T12:38:12.056Z,56.35
2023-03-27T12:39:12.053Z,55.99
2023-03-27T12:40:12.027Z,53.98
2023-03-27T12:41:12.023Z,53.11
2023-03-27T12:42:12.008Z,55.56
2023-03-27T12:43:11.999Z,56.53
2023-03-27T12:44:12.002Z,55.56
2023-03-27T12:45:11.998Z,55.91
2023-03-27T12:46:11.999Z,56.48
2023-03-27T12:47:11.961Z,54.49
2023-03-27T12:48:11.960Z,52.12
2023-03-27T12:49:11.957Z,49.61
2023-03-27T12:50:11.931Z,51.97
2023-03-27T12:51:12.922Z,51.09
2023-03-27T12:52:13.504Z,47.81
2023-03-27T12:53:11.908Z,53.57
2023-03-27T12:54:11.904Z,50.68
2023-03-27T12:55:11.892Z,49.21
2023-03-27T12:56:11.961Z,48.88
2023-03-27T12:57:11.927Z,45.94
2023-03-27T12:58:11.890Z,47.92
2023-03-27T12:59:11.849Z,49.48
2023-03-27T13:00:11.836Z,47.03
2023-03-27T13:01:11.839Z,47.59
2023-03-27T13:02:11.921Z,46.15
2023-03-27T13:03:11.906Z,44.57
2023-03-27T13:04:11.803Z,41.46
2023-03-27T13:05:24.157Z,46.32
2023-03-27T13:08:05.893Z,42.58
2023-03-27T13:09:05.866Z,45.18
2023-03-27T13:10:05.866Z,41.24
2023-03-27T13:11:05.838Z,42.52
2023-03-27T13:12:05.840Z,40.09
2023-03-27T13:13:05.830Z,41.32
2023-03-27T13:14:05.801Z,41.44
2023-03-27T13:15:05.841Z,41.03
2023-03-27T13:16:05.844Z,41.33
2023-03-27T13:17:05.812Z,42.47
2023-03-27T13:18:05.852Z,44.26
2023-03-27T13:19:05.770Z,44.82
2023-03-27T13:20:05.847Z,44.81
2023-03-27T13:21:05.717Z,44.46
2023-03-27T13:22:05.726Z,44.74
2023-03-27T13:23:05.724Z,44.84
2023-03-27T13:25:33.320Z,41.80
2023-03-27T13:26:31.683Z,44.59
2023-03-27T13:27:31.672Z,45.63
2023-03-27T13:28:31.662Z,48.42
2023-03-27T13:29:31.665Z,46.14
2023-03-27T13:30:31.645Z,47.69
2023-03-27T13:31:31.695Z,50.60
2023-03-27T13:32:31.828Z,51.24
2023-03-27T13:33:31.655Z,51.39
2023-03-27T13:34:31.617Z,54.25
2023-03-27T13:35:31.615Z,52.64
2023-03-27T13:36:31.576Z,53.49
2023-03-27T13:37:36.668Z,52.97
2023-03-27T13:38:32.726Z,52.64
2023-03-27T13:46:50.514Z,49.60
2023-03-27T13:47:41.809Z,48.23
2023-03-27T13:50:08.306Z,44.75
2023-03-27T13:51:09.305Z,46.25
2023-03-27T13:52:08.284Z,43.63
2023-03-27T13:53:08.274Z,48.21
2023-03-27T13:54:22.930Z,45.91
2023-03-27T13:55:08.265Z,44.92
2023-03-27T13:56:08.236Z,47.46
2023-03-27T13:57:08.253Z,48.02
2023-03-27T13:58:08.219Z,47.34
2023-03-27T13:59:08.211Z,47.24
2023-03-27T14:00:08.220Z,48.39
2023-03-27T14:01:08.191Z,49.05
2023-03-27T14:02:08.233Z,49.58
2023-03-27T14:03:08.276Z,48.89
2023-03-27T14:04:08.203Z,48.38